sensor_id;sensor_type;location;lat;lon;timestamp;P1;durP1;ratioP1;P2;durP2;ratioP2
79543;SDS011;68994;47.176;7.534;2023-05-20T00:01:39;7.63;;;5.70;;
79543;SDS011;68994;47.176;7.534;2023-05-20T00:04:06;8.38;;;7.15;;
79543;SDS011;68994;47.176;7.534;2023-05-20T00:06:32;9.52;;;7.00;;
79543;SDS011;68994;47.176;7.534;2023-05-20T00:09:00;9.13;;;7.57;;
79543;SDS011;68994;47.176;7.534;2023-05-20T00:11:27;9.00;;;6.05;;
79543;SDS011;68994;47.176;7.534;2023-05-20T00:13:54;9.35;;;6.38;;
79543;SDS011;68994;47.176;7.534;2023-05-20T00:16:22;10.05;;;6.30;;
79543;SDS011;68994;47.176;7.534;2023-05-20T00:18:49;7.75;;;5.45;;
79543;SDS011;68994;47.176;7.534;2023-05-20T00:21:15;10.32;;;6.28;;
79543;SDS011;68994;47.176;7.534;2023-05-20T00:23:42;9.27;;;7.00;;
79543;SDS011;68994;47.176;7.534;2023-05-20T00:26:09;9.93;;;5.90;;
79543;SDS011;68994;47.176;7.534;2023-05-20T00:28:36;8.60;;;7.57;;
79543;SDS011;68994;47.176;7.534;2023-05-20T00:31:03;9.65;;;6.03;;
79543;SDS011;68994;47.176;7.534;2023-05-20T00:33:31;8.43;;;6.40;;
79543;SDS011;68994;47.176;7.534;2023-05-20T00:35:59;9.32;;;6.63;;
79543;SDS011;68994;47.176;7.534;2023-05-20T00:38:25;8.25;;;5.97;;
79543;SDS011;68994;47.176;7.534;2023-05-20T00:40:52;8.07;;;5.88;;
79543;SDS011;68994;47.176;7.534;2023-05-20T00:43:19;12.25;;;7.10;;
79543;SDS011;68994;47.176;7.534;2023-05-20T00:45:46;7.60;;;5.50;;
79543;SDS011;68994;47.176;7.534;2023-05-20T00:48:13;9.82;;;7.18;;
79543;SDS011;68994;47.176;7.534;2023-05-20T00:50:42;8.15;;;5.63;;
79543;SDS011;68994;47.176;7.534;2023-05-20T00:53:08;6.55;;;5.55;;
79543;SDS011;68994;47.176;7.534;2023-05-20T00:55:35;10.02;;;6.78;;
79543;SDS011;68994;47.176;7.534;2023-05-20T00:58:03;9.52;;;7.60;;
79543;SDS011;68994;47.176;7.534;2023-05-20T01:00:30;8.30;;;5.97;;
79543;SDS011;68994;47.176;7.534;2023-05-20T01:02:56;9.02;;;5.43;;
79543;SDS011;68994;47.176;7.534;2023-05-20T01:05:24;9.40;;;5.57;;
79543;SDS011;68994;47.176;7.534;2023-05-20T01:07:52;9.13;;;7.57;;
79543;SDS011;68994;47.176;7.534;2023-05-20T01:10:19;8.93;;;5.95;;
79543;SDS011;68994;47.176;7.534;2023-05-20T01:12:48;8.90;;;6.30;;
79543;SDS011;68994;47.176;7.534;2023-05-20T01:15:19;9.18;;;6.55;;
79543;SDS011;68994;47.176;7.534;2023-05-20T01:17:50;9.27;;;7.75;;
79543;SDS011;68994;47.176;7.534;2023-05-20T01:20:18;9.73;;;7.47;;
79543;SDS011;68994;47.176;7.534;2023-05-20T01:22:47;8.48;;;6.10;;
79543;SDS011;68994;47.176;7.534;2023-05-20T01:25:15;7.85;;;6.05;;
79543;SDS011;68994;47.176;7.534;2023-05-20T01:27:41;12.18;;;7.13;;
79543;SDS011;68994;47.176;7.534;2023-05-20T01:30:09;9.88;;;6.78;;
79543;SDS011;68994;47.176;7.534;2023-05-20T01:32:37;8.85;;;6.80;;
79543;SDS011;68994;47.176;7.534;2023-05-20T01:35:05;9.10;;;7.20;;
79543;SDS011;68994;47.176;7.534;2023-05-20T01:37:33;8.20;;;6.50;;
79543;SDS011;68994;47.176;7.534;2023-05-20T01:40:05;10.23;;;6.97;;
79543;SDS011;68994;47.176;7.534;2023-05-20T01:42:34;9.80;;;6.97;;
79543;SDS011;68994;47.176;7.534;2023-05-20T01:45:01;8.05;;;6.20;;
79543;SDS011;68994;47.176;7.534;2023-05-20T01:47:29;8.05;;;6.57;;
79543;SDS011;68994;47.176;7.534;2023-05-20T01:49:56;9.90;;;7.22;;
79543;SDS011;68994;47.176;7.534;2023-05-20T01:52:22;8.75;;;6.97;;
79543;SDS011;68994;47.176;7.534;2023-05-20T01:54:49;9.60;;;7.38;;
79543;SDS011;68994;47.176;7.534;2023-05-20T01:57:18;7.82;;;5.63;;
79543;SDS011;68994;47.176;7.534;2023-05-20T01:59:45;8.77;;;6.63;;
79543;SDS011;68994;47.176;7.534;2023-05-20T02:02:12;9.90;;;6.90;;
79543;SDS011;68994;47.176;7.534;2023-05-20T02:04:42;10.80;;;7.95;;
79543;SDS011;68994;47.176;7.534;2023-05-20T02:07:12;8.38;;;6.57;;
79543;SDS011;68994;47.176;7.534;2023-05-20T02:09:38;7.97;;;6.13;;
79543;SDS011;68994;47.176;7.534;2023-05-20T02:12:06;8.95;;;8.05;;
79543;SDS011;68994;47.176;7.534;2023-05-20T02:14:34;9.98;;;7.93;;
79543;SDS011;68994;47.176;7.534;2023-05-20T02:17:01;10.30;;;8.30;;
79543;SDS011;68994;47.176;7.534;2023-05-20T02:19:28;9.80;;;7.63;;
79543;SDS011;68994;47.176;7.534;2023-05-20T02:21:55;10.30;;;7.75;;
79543;SDS011;68994;47.176;7.534;2023-05-20T02:24:22;9.68;;;8.43;;
79543;SDS011;68994;47.176;7.534;2023-05-20T02:26:49;10.23;;;7.88;;
79543;SDS011;68994;47.176;7.534;2023-05-20T02:29:17;8.65;;;7.72;;
79543;SDS011;68994;47.176;7.534;2023-05-20T02:31:47;10.25;;;7.22;;
79543;SDS011;68994;47.176;7.534;2023-05-20T02:34:14;9.77;;;8.13;;
79543;SDS011;68994;47.176;7.534;2023-05-20T02:36:41;9.45;;;8.55;;
79543;SDS011;68994;47.176;7.534;2023-05-20T02:39:08;12.23;;;8.60;;
79543;SDS011;68994;47.176;7.534;2023-05-20T02:41:35;10.73;;;6.95;;
79543;SDS011;68994;47.176;7.534;2023-05-20T02:44:01;11.40;;;6.72;;
79543;SDS011;68994;47.176;7.534;2023-05-20T02:46:28;11.40;;;8.57;;
79543;SDS011;68994;47.176;7.534;2023-05-20T02:48:56;11.60;;;8.63;;
79543;SDS011;68994;47.176;7.534;2023-05-20T02:53:49;9.25;;;7.68;;
79543;SDS011;68994;47.176;7.534;2023-05-20T02:56:16;9.05;;;8.02;;
79543;SDS011;68994;47.176;7.534;2023-05-20T02:58:45;12.50;;;7.63;;
79543;SDS011;68994;47.176;7.534;2023-05-20T03:01:12;9.32;;;7.97;;
79543;SDS011;68994;47.176;7.534;2023-05-20T03:03:39;10.00;;;7.60;;
79543;SDS011;68994;47.176;7.534;2023-05-20T03:06:07;9.55;;;8.10;;
79543;SDS011;68994;47.176;7.534;2023-05-20T03:08:34;8.65;;;6.75;;
79543;SDS011;68994;47.176;7.534;2023-05-20T03:11:00;9.48;;;7.55;;
79543;SDS011;68994;47.176;7.534;2023-05-20T03:13:27;12.52;;;8.30;;
79543;SDS011;68994;47.176;7.534;2023-05-20T03:15:54;12.30;;;9.32;;
79543;SDS011;68994;47.176;7.534;2023-05-20T03:18:21;10.02;;;7.70;;
79543;SDS011;68994;47.176;7.534;2023-05-20T03:20:47;10.65;;;8.57;;
79543;SDS011;68994;47.176;7.534;2023-05-20T03:23:15;12.45;;;8.57;;
79543;SDS011;68994;47.176;7.534;2023-05-20T03:28:09;10.40;;;7.20;;
79543;SDS011;68994;47.176;7.534;2023-05-20T03:30:35;9.07;;;6.47;;
79543;SDS011;68994;47.176;7.534;2023-05-20T03:33:02;11.55;;;7.95;;
79543;SDS011;68994;47.176;7.534;2023-05-20T03:35:29;10.02;;;7.32;;
79543;SDS011;68994;47.176;7.534;2023-05-20T03:37:56;9.40;;;7.97;;
79543;SDS011;68994;47.176;7.534;2023-05-20T03:40:27;13.00;;;9.45;;
79543;SDS011;68994;47.176;7.534;2023-05-20T03:45:20;15.07;;;8.82;;
79543;SDS011;68994;47.176;7.534;2023-05-20T03:47:47;10.20;;;7.40;;
79543;SDS011;68994;47.176;7.534;2023-05-20T03:50:14;9.05;;;7.43;;
79543;SDS011;68994;47.176;7.534;2023-05-20T03:52:41;14.70;;;7.93;;
79543;SDS011;68994;47.176;7.534;2023-05-20T03:55:08;12.23;;;7.18;;
79543;SDS011;68994;47.176;7.534;2023-05-20T03:57:36;9.95;;;8.35;;
79543;SDS011;68994;47.176;7.534;2023-05-20T04:00:04;9.05;;;8.15;;
79543;SDS011;68994;47.176;7.534;2023-05-20T04:02:35;9.13;;;8.13;;
79543;SDS011;68994;47.176;7.534;2023-05-20T04:05:02;9.27;;;8.13;;
79543;SDS011;68994;47.176;7.534;2023-05-20T04:07:29;10.45;;;8.23;;
79543;SDS011;68994;47.176;7.534;2023-05-20T04:09:56;15.23;;;8.75;;
79543;SDS011;68994;47.176;7.534;2023-05-20T04:12:23;10.27;;;8.32;;
79543;SDS011;68994;47.176;7.534;2023-05-20T04:14:55;9.00;;;7.82;;
79543;SDS011;68994;47.176;7.534;2023-05-20T04:17:22;11.15;;;9.10;;
79543;SDS011;68994;47.176;7.534;2023-05-20T04:19:49;9.55;;;7.93;;
79543;SDS011;68994;47.176;7.534;2023-05-20T04:22:16;11.27;;;8.30;;
79543;SDS011;68994;47.176;7.534;2023-05-20T04:24:42;11.13;;;9.40;;
79543;SDS011;68994;47.176;7.534;2023-05-20T04:27:10;11.20;;;9.18;;
79543;SDS011;68994;47.176;7.534;2023-05-20T04:29:38;9.50;;;7.40;;
79543;SDS011;68994;47.176;7.534;2023-05-20T04:32:07;9.88;;;8.38;;
79543;SDS011;68994;47.176;7.534;2023-05-20T04:34:34;10.15;;;9.02;;
79543;SDS011;68994;47.176;7.534;2023-05-20T04:37:01;11.35;;;6.97;;
79543;SDS011;68994;47.176;7.534;2023-05-20T04:39:28;9.63;;;8.63;;
79543;SDS011;68994;47.176;7.534;2023-05-20T04:41:55;10.50;;;7.68;;
79543;SDS011;68994;47.176;7.534;2023-05-20T04:44:22;12.30;;;9.57;;
79543;SDS011;68994;47.176;7.534;2023-05-20T04:46:50;13.02;;;7.93;;
79543;SDS011;68994;47.176;7.534;2023-05-20T04:49:18;9.80;;;6.25;;
79543;SDS011;68994;47.176;7.534;2023-05-20T04:51:45;9.15;;;7.82;;
79543;SDS011;68994;47.176;7.534;2023-05-20T04:54:15;9.15;;;7.22;;
79543;SDS011;68994;47.176;7.534;2023-05-20T04:56:44;9.50;;;8.30;;
79543;SDS011;68994;47.176;7.534;2023-05-20T04:59:11;9.20;;;8.25;;
79543;SDS011;68994;47.176;7.534;2023-05-20T05:01:38;11.75;;;8.07;;
79543;SDS011;68994;47.176;7.534;2023-05-20T05:04:05;10.20;;;7.57;;
79543;SDS011;68994;47.176;7.534;2023-05-20T05:06:33;9.57;;;7.45;;
79543;SDS011;68994;47.176;7.534;2023-05-20T05:09:00;10.32;;;6.28;;
79543;SDS011;68994;47.176;7.534;2023-05-20T05:11:27;10.57;;;7.60;;
79543;SDS011;68994;47.176;7.534;2023-05-20T05:13:54;10.82;;;7.00;;
79543;SDS011;68994;47.176;7.534;2023-05-20T05:16:20;9.10;;;7.13;;
79543;SDS011;68994;47.176;7.534;2023-05-20T05:18:47;11.20;;;7.25;;
79543;SDS011;68994;47.176;7.534;2023-05-20T05:21:14;9.48;;;7.38;;
79543;SDS011;68994;47.176;7.534;2023-05-20T05:23:42;9.25;;;8.00;;
79543;SDS011;68994;47.176;7.534;2023-05-20T05:26:09;9.45;;;7.95;;
79543;SDS011;68994;47.176;7.534;2023-05-20T05:28:35;9.25;;;6.90;;
79543;SDS011;68994;47.176;7.534;2023-05-20T05:31:02;10.20;;;8.57;;
79543;SDS011;68994;47.176;7.534;2023-05-20T05:33:30;9.55;;;8.57;;
79543;SDS011;68994;47.176;7.534;2023-05-20T05:35:57;9.35;;;8.43;;
79543;SDS011;68994;47.176;7.534;2023-05-20T05:38:25;8.70;;;7.30;;
79543;SDS011;68994;47.176;7.534;2023-05-20T05:40:53;12.27;;;7.93;;
79543;SDS011;68994;47.176;7.534;2023-05-20T05:43:20;10.52;;;8.73;;
79543;SDS011;68994;47.176;7.534;2023-05-20T05:45:46;12.23;;;9.23;;
79543;SDS011;68994;47.176;7.534;2023-05-20T05:48:13;10.98;;;7.75;;
79543;SDS011;68994;47.176;7.534;2023-05-20T05:50:42;13.13;;;8.70;;
79543;SDS011;68994;47.176;7.534;2023-05-20T05:53:10;12.30;;;7.80;;
79543;SDS011;68994;47.176;7.534;2023-05-20T05:55:36;9.27;;;7.78;;
79543;SDS011;68994;47.176;7.534;2023-05-20T05:58:04;11.65;;;8.40;;
79543;SDS011;68994;47.176;7.534;2023-05-20T06:00:31;10.00;;;7.72;;
79543;SDS011;68994;47.176;7.534;2023-05-20T06:02:58;10.02;;;7.50;;
79543;SDS011;68994;47.176;7.534;2023-05-20T06:05:25;12.00;;;7.07;;
79543;SDS011;68994;47.176;7.534;2023-05-20T06:07:52;10.07;;;9.05;;
79543;SDS011;68994;47.176;7.534;2023-05-20T06:10:18;11.05;;;7.63;;
79543;SDS011;68994;47.176;7.534;2023-05-20T06:12:45;12.43;;;8.13;;
79543;SDS011;68994;47.176;7.534;2023-05-20T06:15:13;9.77;;;8.38;;
79543;SDS011;68994;47.176;7.534;2023-05-20T06:17:40;18.40;;;9.32;;
79543;SDS011;68994;47.176;7.534;2023-05-20T06:20:07;8.88;;;7.97;;
79543;SDS011;68994;47.176;7.534;2023-05-20T06:22:34;9.15;;;8.07;;
79543;SDS011;68994;47.176;7.534;2023-05-20T06:25:01;10.15;;;7.22;;
79543;SDS011;68994;47.176;7.534;2023-05-20T06:27:27;10.57;;;8.45;;
79543;SDS011;68994;47.176;7.534;2023-05-20T06:29:54;8.73;;;7.05;;
79543;SDS011;68994;47.176;7.534;2023-05-20T06:32:22;9.70;;;7.60;;
79543;SDS011;68994;47.176;7.534;2023-05-20T06:34:49;9.95;;;7.10;;
79543;SDS011;68994;47.176;7.534;2023-05-20T06:37:15;9.30;;;7.35;;
79543;SDS011;68994;47.176;7.534;2023-05-20T06:39:42;10.45;;;8.25;;
79543;SDS011;68994;47.176;7.534;2023-05-20T06:42:10;11.73;;;7.40;;
79543;SDS011;68994;47.176;7.534;2023-05-20T06:44:37;11.18;;;7.20;;
79543;SDS011;68994;47.176;7.534;2023-05-20T06:47:04;10.57;;;7.25;;
79543;SDS011;68994;47.176;7.534;2023-05-20T06:49:32;7.93;;;7.00;;
79543;SDS011;68994;47.176;7.534;2023-05-20T06:51:58;8.98;;;6.82;;
79543;SDS011;68994;47.176;7.534;2023-05-20T06:54:25;7.75;;;5.78;;
79543;SDS011;68994;47.176;7.534;2023-05-20T06:56:52;8.60;;;6.65;;
79543;SDS011;68994;47.176;7.534;2023-05-20T06:59:19;9.93;;;6.95;;
79543;SDS011;68994;47.176;7.534;2023-05-20T07:01:48;11.70;;;6.90;;
79543;SDS011;68994;47.176;7.534;2023-05-20T07:04:15;9.43;;;6.68;;
79543;SDS011;68994;47.176;7.534;2023-05-20T07:06:43;7.15;;;4.95;;
79543;SDS011;68994;47.176;7.534;2023-05-20T07:09:10;7.90;;;7.18;;
79543;SDS011;68994;47.176;7.534;2023-05-20T07:11:36;7.85;;;6.57;;
79543;SDS011;68994;47.176;7.534;2023-05-20T07:14:03;7.50;;;6.63;;
79543;SDS011;68994;47.176;7.534;2023-05-20T07:16:30;9.27;;;6.15;;
79543;SDS011;68994;47.176;7.534;2023-05-20T07:18:58;8.57;;;6.07;;
79543;SDS011;68994;47.176;7.534;2023-05-20T07:21:25;8.85;;;6.15;;
79543;SDS011;68994;47.176;7.534;2023-05-20T07:23:53;9.23;;;6.78;;
79543;SDS011;68994;47.176;7.534;2023-05-20T07:26:20;7.80;;;5.88;;
79543;SDS011;68994;47.176;7.534;2023-05-20T07:28:47;6.90;;;6.20;;
79543;SDS011;68994;47.176;7.534;2023-05-20T07:31:13;7.85;;;6.45;;
79543;SDS011;68994;47.176;7.534;2023-05-20T07:33:41;8.13;;;6.18;;
79543;SDS011;68994;47.176;7.534;2023-05-20T07:36:07;9.45;;;6.95;;
79543;SDS011;68994;47.176;7.534;2023-05-20T07:38:34;8.63;;;7.00;;
79543;SDS011;68994;47.176;7.534;2023-05-20T07:41:02;8.50;;;6.97;;
79543;SDS011;68994;47.176;7.534;2023-05-20T07:43:30;10.27;;;7.15;;
79543;SDS011;68994;47.176;7.534;2023-05-20T07:45:57;7.88;;;6.90;;
79543;SDS011;68994;47.176;7.534;2023-05-20T07:48:24;9.88;;;8.32;;
79543;SDS011;68994;47.176;7.534;2023-05-20T07:50:50;9.95;;;7.35;;
79543;SDS011;68994;47.176;7.534;2023-05-20T07:53:17;11.25;;;7.45;;
79543;SDS011;68994;47.176;7.534;2023-05-20T07:55:44;10.88;;;8.07;;
79543;SDS011;68994;47.176;7.534;2023-05-20T07:58:14;9.40;;;8.40;;
79543;SDS011;68994;47.176;7.534;2023-05-20T08:00:40;10.52;;;8.23;;
79543;SDS011;68994;47.176;7.534;2023-05-20T08:03:07;12.13;;;8.43;;
79543;SDS011;68994;47.176;7.534;2023-05-20T08:05:35;9.45;;;8.20;;
79543;SDS011;68994;47.176;7.534;2023-05-20T08:08:02;10.82;;;8.95;;
79543;SDS011;68994;47.176;7.534;2023-05-20T08:10:29;10.88;;;8.57;;
79543;SDS011;68994;47.176;7.534;2023-05-20T08:12:56;9.25;;;8.10;;
79543;SDS011;68994;47.176;7.534;2023-05-20T08:15:24;10.85;;;7.63;;
79543;SDS011;68994;47.176;7.534;2023-05-20T08:17:50;15.32;;;8.73;;
79543;SDS011;68994;47.176;7.534;2023-05-20T08:20:17;11.95;;;8.32;;
79543;SDS011;68994;47.176;7.534;2023-05-20T08:22:45;10.55;;;9.18;;
79543;SDS011;68994;47.176;7.534;2023-05-20T08:25:12;13.43;;;9.52;;
79543;SDS011;68994;47.176;7.534;2023-05-20T08:27:40;11.02;;;9.20;;
79543;SDS011;68994;47.176;7.534;2023-05-20T08:30:07;11.25;;;8.75;;
79543;SDS011;68994;47.176;7.534;2023-05-20T08:32:36;14.07;;;9.38;;
79543;SDS011;68994;47.176;7.534;2023-05-20T08:35:03;11.73;;;8.80;;
79543;SDS011;68994;47.176;7.534;2023-05-20T08:37:30;9.98;;;8.10;;
79543;SDS011;68994;47.176;7.534;2023-05-20T08:39:57;12.80;;;8.93;;
79543;SDS011;68994;47.176;7.534;2023-05-20T08:42:24;11.02;;;9.45;;
79543;SDS011;68994;47.176;7.534;2023-05-20T08:44:51;14.27;;;9.77;;
79543;SDS011;68994;47.176;7.534;2023-05-20T08:47:19;13.82;;;8.85;;
79543;SDS011;68994;47.176;7.534;2023-05-20T08:49:47;11.48;;;9.73;;
79543;SDS011;68994;47.176;7.534;2023-05-20T08:52:15;13.65;;;10.25;;
79543;SDS011;68994;47.176;7.534;2023-05-20T08:54:44;10.40;;;8.00;;
79543;SDS011;68994;47.176;7.534;2023-05-20T08:57:12;11.82;;;8.80;;
79543;SDS011;68994;47.176;7.534;2023-05-20T08:59:39;10.70;;;8.88;;
79543;SDS011;68994;47.176;7.534;2023-05-20T09:02:08;11.38;;;10.20;;
79543;SDS011;68994;47.176;7.534;2023-05-20T09:04:35;9.82;;;8.75;;
79543;SDS011;68994;47.176;7.534;2023-05-20T09:07:03;12.50;;;10.00;;
79543;SDS011;68994;47.176;7.534;2023-05-20T09:09:31;12.60;;;9.73;;
79543;SDS011;68994;47.176;7.534;2023-05-20T09:11:59;12.93;;;9.23;;
79543;SDS011;68994;47.176;7.534;2023-05-20T09:14:27;12.30;;;9.35;;
79543;SDS011;68994;47.176;7.534;2023-05-20T09:16:56;12.50;;;9.85;;
79543;SDS011;68994;47.176;7.534;2023-05-20T09:19:23;13.90;;;10.25;;
79543;SDS011;68994;47.176;7.534;2023-05-20T09:21:51;11.77;;;9.38;;
79543;SDS011;68994;47.176;7.534;2023-05-20T09:24:21;13.55;;;10.35;;
79543;SDS011;68994;47.176;7.534;2023-05-20T09:26:49;11.25;;;8.48;;
79543;SDS011;68994;47.176;7.534;2023-05-20T09:29:16;11.15;;;9.10;;
79543;SDS011;68994;47.176;7.534;2023-05-20T09:31:43;11.93;;;8.88;;
79543;SDS011;68994;47.176;7.534;2023-05-20T09:34:11;15.32;;;9.68;;
79543;SDS011;68994;47.176;7.534;2023-05-20T09:36:38;14.75;;;9.63;;
79543;SDS011;68994;47.176;7.534;2023-05-20T09:39:08;12.32;;;8.88;;
79543;SDS011;68994;47.176;7.534;2023-05-20T09:41:43;11.57;;;7.80;;
79543;SDS011;68994;47.176;7.534;2023-05-20T09:44:14;10.60;;;8.93;;
79543;SDS011;68994;47.176;7.534;2023-05-20T09:46:42;11.75;;;8.77;;
79543;SDS011;68994;47.176;7.534;2023-05-20T09:49:11;11.73;;;8.82;;
79543;SDS011;68994;47.176;7.534;2023-05-20T09:51:39;13.73;;;9.75;;
79543;SDS011;68994;47.176;7.534;2023-05-20T09:54:09;11.23;;;8.85;;
79543;SDS011;68994;47.176;7.534;2023-05-20T09:56:37;15.23;;;9.15;;
79543;SDS011;68994;47.176;7.534;2023-05-20T09:59:08;10.23;;;9.20;;
79543;SDS011;68994;47.176;7.534;2023-05-20T10:01:36;11.52;;;8.50;;
79543;SDS011;68994;47.176;7.534;2023-05-20T10:04:03;11.40;;;8.93;;
79543;SDS011;68994;47.176;7.534;2023-05-20T10:06:40;11.18;;;8.40;;
79543;SDS011;68994;47.176;7.534;2023-05-20T10:09:23;10.52;;;8.55;;
79543;SDS011;68994;47.176;7.534;2023-05-20T10:12:02;11.57;;;9.32;;
79543;SDS011;68994;47.176;7.534;2023-05-20T10:14:39;10.40;;;9.35;;
79543;SDS011;68994;47.176;7.534;2023-05-20T10:17:17;8.43;;;7.25;;
79543;SDS011;68994;47.176;7.534;2023-05-20T10:19:49;12.38;;;8.20;;
79543;SDS011;68994;47.176;7.534;2023-05-20T10:22:24;11.30;;;9.05;;
79543;SDS011;68994;47.176;7.534;2023-05-20T10:24:56;11.30;;;8.52;;
79543;SDS011;68994;47.176;7.534;2023-05-20T10:27:24;11.90;;;8.18;;
79543;SDS011;68994;47.176;7.534;2023-05-20T10:29:53;11.93;;;9.75;;
79543;SDS011;68994;47.176;7.534;2023-05-20T10:32:24;9.98;;;8.60;;
79543;SDS011;68994;47.176;7.534;2023-05-20T10:34:52;8.93;;;6.40;;
79543;SDS011;68994;47.176;7.534;2023-05-20T10:37:25;10.40;;;8.75;;
79543;SDS011;68994;47.176;7.534;2023-05-20T10:40:02;10.73;;;9.25;;
79543;SDS011;68994;47.176;7.534;2023-05-20T10:42:31;10.25;;;8.23;;
79543;SDS011;68994;47.176;7.534;2023-05-20T10:44:59;11.75;;;9.77;;
79543;SDS011;68994;47.176;7.534;2023-05-20T10:47:25;11.02;;;8.88;;
79543;SDS011;68994;47.176;7.534;2023-05-20T10:49:52;13.32;;;10.20;;
79543;SDS011;68994;47.176;7.534;2023-05-20T10:52:19;11.60;;;9.70;;
79543;SDS011;68994;47.176;7.534;2023-05-20T10:54:46;12.90;;;9.80;;
79543;SDS011;68994;47.176;7.534;2023-05-20T10:57:19;15.85;;;10.05;;
79543;SDS011;68994;47.176;7.534;2023-05-20T10:59:46;10.48;;;9.38;;
79543;SDS011;68994;47.176;7.534;2023-05-20T11:02:16;12.93;;;8.88;;
79543;SDS011;68994;47.176;7.534;2023-05-20T11:04:50;13.82;;;10.20;;
79543;SDS011;68994;47.176;7.534;2023-05-20T11:07:23;10.43;;;8.10;;
79543;SDS011;68994;47.176;7.534;2023-05-20T11:09:51;11.18;;;7.97;;
79543;SDS011;68994;47.176;7.534;2023-05-20T11:12:17;9.93;;;8.80;;
79543;SDS011;68994;47.176;7.534;2023-05-20T11:14:44;9.55;;;7.30;;
79543;SDS011;68994;47.176;7.534;2023-05-20T11:17:13;9.10;;;7.80;;
79543;SDS011;68994;47.176;7.534;2023-05-20T11:19:42;11.07;;;8.68;;
79543;SDS011;68994;47.176;7.534;2023-05-20T11:22:09;9.10;;;7.95;;
79543;SDS011;68994;47.176;7.534;2023-05-20T11:24:36;10.85;;;8.18;;
79543;SDS011;68994;47.176;7.534;2023-05-20T11:27:03;9.88;;;8.05;;
79543;SDS011;68994;47.176;7.534;2023-05-20T11:29:30;10.60;;;8.77;;
79543;SDS011;68994;47.176;7.534;2023-05-20T11:31:58;9.60;;;8.23;;
79543;SDS011;68994;47.176;7.534;2023-05-20T11:34:25;9.82;;;8.65;;
79543;SDS011;68994;47.176;7.534;2023-05-20T11:36:59;12.23;;;9.30;;
79543;SDS011;68994;47.176;7.534;2023-05-20T11:39:28;9.35;;;7.90;;
79543;SDS011;68994;47.176;7.534;2023-05-20T11:41:58;11.65;;;9.43;;
79543;SDS011;68994;47.176;7.534;2023-05-20T11:44:26;10.63;;;7.57;;
79543;SDS011;68994;47.176;7.534;2023-05-20T11:46:58;10.23;;;8.38;;
79543;SDS011;68994;47.176;7.534;2023-05-20T11:49:26;9.32;;;8.30;;
79543;SDS011;68994;47.176;7.534;2023-05-20T11:51:55;13.23;;;9.07;;
79543;SDS011;68994;47.176;7.534;2023-05-20T11:54:23;8.63;;;7.63;;
79543;SDS011;68994;47.176;7.534;2023-05-20T11:56:50;12.73;;;9.10;;
79543;SDS011;68994;47.176;7.534;2023-05-20T11:59:19;11.82;;;8.25;;
79543;SDS011;68994;47.176;7.534;2023-05-20T12:01:46;10.82;;;8.50;;
79543;SDS011;68994;47.176;7.534;2023-05-20T12:04:12;9.63;;;8.02;;
79543;SDS011;68994;47.176;7.534;2023-05-20T12:06:40;9.07;;;7.38;;
79543;SDS011;68994;47.176;7.534;2023-05-20T12:09:08;10.77;;;8.55;;
79543;SDS011;68994;47.176;7.534;2023-05-20T12:11:37;10.63;;;8.63;;
79543;SDS011;68994;47.176;7.534;2023-05-20T12:14:05;10.52;;;8.18;;
79543;SDS011;68994;47.176;7.534;2023-05-20T12:16:32;9.82;;;8.07;;
79543;SDS011;68994;47.176;7.534;2023-05-20T12:18:59;9.98;;;8.38;;
79543;SDS011;68994;47.176;7.534;2023-05-20T12:21:27;8.35;;;7.45;;
79543;SDS011;68994;47.176;7.534;2023-05-20T12:28:50;9.20;;;8.15;;
79543;SDS011;68994;47.176;7.534;2023-05-20T12:31:17;9.30;;;7.75;;
79543;SDS011;68994;47.176;7.534;2023-05-20T12:33:43;7.88;;;7.07;;
79543;SDS011;68994;47.176;7.534;2023-05-20T12:36:13;9.15;;;8.18;;
79543;SDS011;68994;47.176;7.534;2023-05-20T12:38:40;9.45;;;7.28;;
79543;SDS011;68994;47.176;7.534;2023-05-20T12:41:07;9.88;;;6.85;;
79543;SDS011;68994;47.176;7.534;2023-05-20T12:43:34;10.73;;;8.43;;
79543;SDS011;68994;47.176;7.534;2023-05-20T12:46:02;9.68;;;8.02;;
79543;SDS011;68994;47.176;7.534;2023-05-20T12:48:29;10.32;;;7.78;;
79543;SDS011;68994;47.176;7.534;2023-05-20T12:50:56;11.65;;;8.55;;
79543;SDS011;68994;47.176;7.534;2023-05-20T12:53:23;9.57;;;7.47;;
79543;SDS011;68994;47.176;7.534;2023-05-20T12:55:50;9.43;;;8.35;;
79543;SDS011;68994;47.176;7.534;2023-05-20T12:58:17;9.48;;;7.78;;
79543;SDS011;68994;47.176;7.534;2023-05-20T13:00:43;8.75;;;7.60;;
79543;SDS011;68994;47.176;7.534;2023-05-20T13:03:13;10.63;;;8.50;;
79543;SDS011;68994;47.176;7.534;2023-05-20T13:05:40;13.00;;;8.25;;
79543;SDS011;68994;47.176;7.534;2023-05-20T13:08:07;9.15;;;7.20;;
79543;SDS011;68994;47.176;7.534;2023-05-20T13:10:35;10.00;;;7.25;;
79543;SDS011;68994;47.176;7.534;2023-05-20T13:13:01;10.13;;;7.22;;
79543;SDS011;68994;47.176;7.534;2023-05-20T13:15:28;8.70;;;7.38;;
79543;SDS011;68994;47.176;7.534;2023-05-20T13:17:57;13.00;;;6.82;;
79543;SDS011;68994;47.176;7.534;2023-05-20T13:20:26;12.88;;;7.45;;
79543;SDS011;68994;47.176;7.534;2023-05-20T13:22:53;7.57;;;6.20;;
79543;SDS011;68994;47.176;7.534;2023-05-20T13:25:20;8.55;;;7.75;;
79543;SDS011;68994;47.176;7.534;2023-05-20T13:27:46;7.90;;;6.47;;
79543;SDS011;68994;47.176;7.534;2023-05-20T13:30:13;7.40;;;6.45;;
79543;SDS011;68994;47.176;7.534;2023-05-20T13:32:40;7.43;;;6.72;;
79543;SDS011;68994;47.176;7.534;2023-05-20T13:35:07;7.78;;;6.57;;
79543;SDS011;68994;47.176;7.534;2023-05-20T13:37:35;7.28;;;6.53;;
79543;SDS011;68994;47.176;7.534;2023-05-20T13:40:02;9.75;;;8.40;;
79543;SDS011;68994;47.176;7.534;2023-05-20T13:42:29;10.57;;;6.95;;
79543;SDS011;68994;47.176;7.534;2023-05-20T13:44:55;9.32;;;7.45;;
79543;SDS011;68994;47.176;7.534;2023-05-20T13:47:22;9.00;;;7.00;;
79543;SDS011;68994;47.176;7.534;2023-05-20T13:49:49;7.50;;;6.68;;
79543;SDS011;68994;47.176;7.534;2023-05-20T13:52:15;8.43;;;6.80;;
79543;SDS011;68994;47.176;7.534;2023-05-20T13:54:43;7.72;;;6.70;;
79543;SDS011;68994;47.176;7.534;2023-05-20T13:57:12;8.65;;;6.60;;
79543;SDS011;68994;47.176;7.534;2023-05-20T13:59:39;8.05;;;7.22;;
79543;SDS011;68994;47.176;7.534;2023-05-20T14:02:06;7.10;;;5.55;;
79543;SDS011;68994;47.176;7.534;2023-05-20T14:04:33;11.70;;;7.20;;
79543;SDS011;68994;47.176;7.534;2023-05-20T14:07:02;9.50;;;7.28;;
79543;SDS011;68994;47.176;7.534;2023-05-20T14:09:29;8.65;;;6.70;;
79543;SDS011;68994;47.176;7.534;2023-05-20T14:11:57;9.25;;;7.03;;
79543;SDS011;68994;47.176;7.534;2023-05-20T14:14:24;9.02;;;6.63;;
79543;SDS011;68994;47.176;7.534;2023-05-20T14:16:50;7.95;;;6.93;;
79543;SDS011;68994;47.176;7.534;2023-05-20T14:19:17;8.02;;;6.03;;
79543;SDS011;68994;47.176;7.534;2023-05-20T14:21:44;9.65;;;7.68;;
79543;SDS011;68994;47.176;7.534;2023-05-20T14:24:13;7.78;;;6.30;;
79543;SDS011;68994;47.176;7.534;2023-05-20T14:26:40;9.63;;;6.25;;
79543;SDS011;68994;47.176;7.534;2023-05-20T14:29:08;7.47;;;6.72;;
79543;SDS011;68994;47.176;7.534;2023-05-20T14:31:34;8.15;;;7.32;;
79543;SDS011;68994;47.176;7.534;2023-05-20T14:34:02;8.05;;;7.25;;
79543;SDS011;68994;47.176;7.534;2023-05-20T14:36:29;9.70;;;7.13;;
79543;SDS011;68994;47.176;7.534;2023-05-20T14:38:56;8.05;;;6.82;;
79543;SDS011;68994;47.176;7.534;2023-05-20T14:41:22;10.20;;;6.82;;
79543;SDS011;68994;47.176;7.534;2023-05-20T14:43:50;8.85;;;7.70;;
79543;SDS011;68994;47.176;7.534;2023-05-20T14:46:18;10.98;;;7.50;;
79543;SDS011;68994;47.176;7.534;2023-05-20T14:48:44;10.40;;;8.90;;
79543;SDS011;68994;47.176;7.534;2023-05-20T14:51:13;7.78;;;6.97;;
79543;SDS011;68994;47.176;7.534;2023-05-20T14:53:40;10.02;;;7.43;;
79543;SDS011;68994;47.176;7.534;2023-05-20T14:56:07;8.15;;;7.20;;